Terminal Aerodrome Forecast
Issued by NWS North Platte, NE

Home | Current Version | Previous Version | Graphics & Text | Print | Product List | Glossary On
Versions: 1 2 3 4 5 6 7 8 9 10 11 12 13 14 15 16
000
FTUS43 KLBF 142029 AAA
TAFVTN
TAF AMD
KVTN 142029Z 1420/1518 33022G30KT P6SM VCSH BKN015 OVC030
     FM142200 32024G34KT P6SM BKN015
     FM150200 31016G22KT P6SM SCT150
     FM151100 26008KT P6SM FEW250=

USA.gov is the U.S. government's official web portal to all federal, state and local government web resources and services.